sensor_id;sensor_type;location;lat;lon;timestamp;pressure;altitude;pressure_sealevel;temperature;humidity
55291;BME280;41155;39.768;2.712;2023-03-14T00:00:56;100772.69;;;21.02;41.44
55291;BME280;41155;39.768;2.712;2023-03-14T00:03:22;100765.06;;;20.90;41.96
55291;BME280;41155;39.768;2.712;2023-03-14T00:05:47;100747.25;;;20.70;42.56
55291;BME280;41155;39.768;2.712;2023-03-14T00:08:13;100765.69;;;20.78;42.44
55291;BME280;41155;39.768;2.712;2023-03-14T00:10:38;100773.22;;;20.64;43.19
55291;BME280;41155;39.768;2.712;2023-03-14T00:13:04;100771.63;;;20.63;42.77
55291;BME280;41155;39.768;2.712;2023-03-14T00:15:29;100784.31;;;20.59;42.93
55291;BME280;41155;39.768;2.712;2023-03-14T00:17:55;100780.97;;;20.39;43.78
55291;BME280;41155;39.768;2.712;2023-03-14T00:20:20;100798.09;;;20.45;43.92
55291;BME280;41155;39.768;2.712;2023-03-14T00:22:46;100811.94;;;20.31;44.75
55291;BME280;41155;39.768;2.712;2023-03-14T00:25:12;100796.41;;;20.26;44.62
55291;BME280;41155;39.768;2.712;2023-03-14T00:27:37;100805.09;;;20.20;45.11
55291;BME280;41155;39.768;2.712;2023-03-14T00:30:05;100830.41;;;19.94;45.52
55291;BME280;41155;39.768;2.712;2023-03-14T00:32:30;100837.38;;;20.00;44.98
55291;BME280;41155;39.768;2.712;2023-03-14T00:34:56;100837.25;;;20.05;44.70
55291;BME280;41155;39.768;2.712;2023-03-14T00:37:22;100838.63;;;19.94;44.93
55291;BME280;41155;39.768;2.712;2023-03-14T00:39:47;100846.50;;;19.96;45.34
55291;BME280;41155;39.768;2.712;2023-03-14T00:42:13;100809.59;;;19.71;45.77
55291;BME280;41155;39.768;2.712;2023-03-14T00:44:39;100860.41;;;19.77;46.13
55291;BME280;41155;39.768;2.712;2023-03-14T00:47:04;100852.88;;;19.82;46.13
55291;BME280;41155;39.768;2.712;2023-03-14T00:49:30;100865.38;;;19.75;46.53
55291;BME280;41155;39.768;2.712;2023-03-14T00:51:55;100865.38;;;19.75;46.96
55291;BME280;41155;39.768;2.712;2023-03-14T00:54:21;100870.66;;;19.71;46.62
55291;BME280;41155;39.768;2.712;2023-03-14T00:56:47;100854.22;;;19.57;46.70
55291;BME280;41155;39.768;2.712;2023-03-14T00:59:12;100863.06;;;19.68;46.76
55291;BME280;41155;39.768;2.712;2023-03-14T01:01:39;100858.72;;;19.39;47.49
55291;BME280;41155;39.768;2.712;2023-03-14T01:04:04;100880.41;;;19.50;47.68
55291;BME280;41155;39.768;2.712;2023-03-14T01:06:33;100884.38;;;19.43;47.87
55291;BME280;41155;39.768;2.712;2023-03-14T01:08:59;100887.72;;;19.40;47.56
55291;BME280;41155;39.768;2.712;2023-03-14T01:11:27;100888.03;;;19.39;47.73
55291;BME280;41155;39.768;2.712;2023-03-14T01:13:53;100867.06;;;19.20;48.07
55291;BME280;41155;39.768;2.712;2023-03-14T01:16:20;100896.34;;;19.34;48.24
55291;BME280;41155;39.768;2.712;2023-03-14T01:18:46;100906.31;;;19.30;48.31
55291;BME280;41155;39.768;2.712;2023-03-14T01:21:24;100869.22;;;19.10;48.40
55291;BME280;41155;39.768;2.712;2023-03-14T01:23:53;100904.97;;;19.13;48.76
55291;BME280;41155;39.768;2.712;2023-03-14T01:26:21;100904.34;;;18.89;49.06
55291;BME280;41155;39.768;2.712;2023-03-14T01:28:49;100907.91;;;18.89;49.27
55291;BME280;41155;39.768;2.712;2023-03-14T01:31:15;100909.63;;;18.99;49.04
55291;BME280;41155;39.768;2.712;2023-03-14T01:33:41;100907.88;;;18.76;49.43
55291;BME280;41155;39.768;2.712;2023-03-14T01:36:08;100916.16;;;18.70;49.73
55291;BME280;41155;39.768;2.712;2023-03-14T01:38:36;100920.97;;;18.60;50.17
55291;BME280;41155;39.768;2.712;2023-03-14T01:41:02;100943.69;;;18.60;50.46
55291;BME280;41155;39.768;2.712;2023-03-14T01:43:28;100904.03;;;18.44;50.58
55291;BME280;41155;39.768;2.712;2023-03-14T01:48:36;100948.50;;;18.49;49.39
55291;BME280;41155;39.768;2.712;2023-03-14T01:51:04;100955.59;;;18.50;49.88
55291;BME280;41155;39.768;2.712;2023-03-14T01:53:31;100964.25;;;18.39;49.99
55291;BME280;41155;39.768;2.712;2023-03-14T01:55:57;100966.31;;;18.28;50.04
55291;BME280;41155;39.768;2.712;2023-03-14T01:58:24;100964.03;;;18.35;49.76
55291;BME280;41155;39.768;2.712;2023-03-14T02:00:53;100967.38;;;18.13;49.23
55291;BME280;41155;39.768;2.712;2023-03-14T02:03:21;100961.41;;;18.11;48.21
55291;BME280;41155;39.768;2.712;2023-03-14T02:05:49;100970.78;;;18.24;46.54
55291;BME280;41155;39.768;2.712;2023-03-14T02:08:18;100963.03;;;18.12;44.96
55291;BME280;41155;39.768;2.712;2023-03-14T02:10:46;100967.09;;;18.15;45.20
55291;BME280;41155;39.768;2.712;2023-03-14T02:13:14;100950.09;;;17.99;45.92
55291;BME280;41155;39.768;2.712;2023-03-14T02:15:40;100975.56;;;18.13;45.75
55291;BME280;41155;39.768;2.712;2023-03-14T02:18:06;100974.09;;;18.02;45.55
55291;BME280;41155;39.768;2.712;2023-03-14T02:20:45;101002.16;;;18.07;46.24
55291;BME280;41155;39.768;2.712;2023-03-14T02:23:17;100995.88;;;18.07;45.37
55291;BME280;41155;39.768;2.712;2023-03-14T02:25:58;100999.94;;;18.10;44.86
55291;BME280;41155;39.768;2.712;2023-03-14T02:28:26;100992.47;;;17.96;45.14
55291;BME280;41155;39.768;2.712;2023-03-14T02:30:54;100996.91;;;17.92;44.88
55291;BME280;41155;39.768;2.712;2023-03-14T02:33:21;100992.25;;;17.93;44.14
55291;BME280;41155;39.768;2.712;2023-03-14T02:35:55;100977.03;;;17.87;44.63
55291;BME280;41155;39.768;2.712;2023-03-14T02:40:47;100991.81;;;17.86;44.70
55291;BME280;41155;39.768;2.712;2023-03-14T02:43:13;100992.16;;;17.79;44.76
55291;BME280;41155;39.768;2.712;2023-03-14T02:45:46;100979.47;;;17.64;44.58
55291;BME280;41155;39.768;2.712;2023-03-14T02:50:41;100970.03;;;17.56;44.27
55291;BME280;41155;39.768;2.712;2023-03-14T02:53:07;101001.31;;;17.64;44.52
55291;BME280;41155;39.768;2.712;2023-03-14T02:55:32;100988.56;;;17.59;44.88
55291;BME280;41155;39.768;2.712;2023-03-14T02:57:58;100985.25;;;17.62;44.71
55291;BME280;41155;39.768;2.712;2023-03-14T03:00:23;100955.94;;;17.44;45.02
55291;BME280;41155;39.768;2.712;2023-03-14T03:02:49;100976.34;;;17.52;45.05
55291;BME280;41155;39.768;2.712;2023-03-14T03:05:14;100963.22;;;17.54;44.68
55291;BME280;41155;39.768;2.712;2023-03-14T03:07:40;100970.50;;;17.39;45.15
55291;BME280;41155;39.768;2.712;2023-03-14T03:10:06;100968.44;;;17.26;45.15
55291;BME280;41155;39.768;2.712;2023-03-14T03:12:31;100975.66;;;17.41;45.14
55291;BME280;41155;39.768;2.712;2023-03-14T03:14:57;100975.66;;;17.41;45.61
55291;BME280;41155;39.768;2.712;2023-03-14T03:17:22;100983.91;;;17.36;45.59
55291;BME280;41155;39.768;2.712;2023-03-14T03:19:48;100965.53;;;17.17;46.20
55291;BME280;41155;39.768;2.712;2023-03-14T03:22:13;100987.09;;;17.19;46.52
55291;BME280;41155;39.768;2.712;2023-03-14T03:24:39;100994.31;;;17.05;46.77
55291;BME280;41155;39.768;2.712;2023-03-14T03:27:04;101006.91;;;17.01;47.00
55291;BME280;41155;39.768;2.712;2023-03-14T03:29:30;100941.56;;;16.56;47.11
55291;BME280;41155;39.768;2.712;2023-03-14T03:31:55;101006.13;;;16.95;47.59
55291;BME280;41155;39.768;2.712;2023-03-14T03:34:21;101019.03;;;16.89;47.98
55291;BME280;41155;39.768;2.712;2023-03-14T03:36:46;101001.41;;;16.71;48.07
55291;BME280;41155;39.768;2.712;2023-03-14T03:39:12;101026.66;;;16.87;48.74
55291;BME280;41155;39.768;2.712;2023-03-14T03:41:37;101014.56;;;16.64;49.69
55291;BME280;41155;39.768;2.712;2023-03-14T03:44:03;101004.00;;;16.53;49.83
55291;BME280;41155;39.768;2.712;2023-03-14T03:46:29;101028.97;;;16.70;50.27
55291;BME280;41155;39.768;2.712;2023-03-14T03:48:59;101029.03;;;16.60;50.28
55291;BME280;41155;39.768;2.712;2023-03-14T03:51:25;101057.31;;;16.69;50.48
55291;BME280;41155;39.768;2.712;2023-03-14T03:53:51;101048.56;;;16.77;50.19
55291;BME280;41155;39.768;2.712;2023-03-14T03:56:16;101050.47;;;16.71;50.10
55291;BME280;41155;39.768;2.712;2023-03-14T03:58:42;101028.50;;;16.58;50.07
55291;BME280;41155;39.768;2.712;2023-03-14T04:01:08;101044.19;;;16.81;49.83
55291;BME280;41155;39.768;2.712;2023-03-14T04:03:35;101043.16;;;16.67;49.76
55291;BME280;41155;39.768;2.712;2023-03-14T04:06:03;101057.59;;;16.67;49.56
55291;BME280;41155;39.768;2.712;2023-03-14T04:08:29;101047.63;;;16.53;49.90
55291;BME280;41155;39.768;2.712;2023-03-14T04:10:56;101040.53;;;16.52;49.70
55291;BME280;41155;39.768;2.712;2023-03-14T04:13:23;101025.34;;;16.40;49.85
55291;BME280;41155;39.768;2.712;2023-03-14T04:15:49;101037.84;;;16.46;49.64
55291;BME280;41155;39.768;2.712;2023-03-14T04:18:14;101060.16;;;16.48;49.60
55291;BME280;41155;39.768;2.712;2023-03-14T04:20:39;101063.69;;;16.54;50.63
55291;BME280;41155;39.768;2.712;2023-03-14T04:23:05;101068.66;;;16.42;50.76
55291;BME280;41155;39.768;2.712;2023-03-14T04:25:30;101084.69;;;16.48;50.81
55291;BME280;41155;39.768;2.712;2023-03-14T04:27:56;101071.06;;;16.48;50.92
55291;BME280;41155;39.768;2.712;2023-03-14T04:30:21;101079.31;;;16.43;51.02
55291;BME280;41155;39.768;2.712;2023-03-14T04:32:47;101093.50;;;16.40;50.87
55291;BME280;41155;39.768;2.712;2023-03-14T04:35:13;101081.63;;;16.16;50.61
55291;BME280;41155;39.768;2.712;2023-03-14T04:37:39;101081.34;;;16.17;46.17
55291;BME280;41155;39.768;2.712;2023-03-14T04:40:07;101081.66;;;16.06;47.48
55291;BME280;41155;39.768;2.712;2023-03-14T04:42:33;101083.59;;;16.00;49.20
55291;BME280;41155;39.768;2.712;2023-03-14T04:44:59;101084.41;;;16.00;49.16
55291;BME280;41155;39.768;2.712;2023-03-14T04:47:25;101114.06;;;16.12;48.88
55291;BME280;41155;39.768;2.712;2023-03-14T04:49:51;101098.59;;;15.97;48.80
55291;BME280;41155;39.768;2.712;2023-03-14T04:52:16;101114.59;;;16.14;49.09
55291;BME280;41155;39.768;2.712;2023-03-14T04:54:41;101087.16;;;15.95;48.84
55291;BME280;41155;39.768;2.712;2023-03-14T04:57:07;101117.84;;;16.11;49.02
55291;BME280;41155;39.768;2.712;2023-03-14T04:59:32;101111.59;;;16.11;48.78
55291;BME280;41155;39.768;2.712;2023-03-14T05:01:58;101103.94;;;16.18;48.92
55291;BME280;41155;39.768;2.712;2023-03-14T05:04:23;101102.09;;;16.03;49.26
55291;BME280;41155;39.768;2.712;2023-03-14T05:06:49;101077.69;;;15.72;49.33
55291;BME280;41155;39.768;2.712;2023-03-14T05:09:15;101126.94;;;15.81;49.52
55291;BME280;41155;39.768;2.712;2023-03-14T05:11:40;101123.13;;;15.82;49.23
55291;BME280;41155;39.768;2.712;2023-03-14T05:14:06;101115.53;;;15.74;49.46
55291;BME280;41155;39.768;2.712;2023-03-14T05:16:31;101128.06;;;15.70;50.10
55291;BME280;41155;39.768;2.712;2023-03-14T05:18:57;101139.22;;;15.68;49.57
55291;BME280;41155;39.768;2.712;2023-03-14T05:21:22;101141.91;;;15.63;49.88
55291;BME280;41155;39.768;2.712;2023-03-14T05:23:48;101149.53;;;15.66;49.94
55291;BME280;41155;39.768;2.712;2023-03-14T05:26:13;101150.38;;;15.56;49.81
55291;BME280;41155;39.768;2.712;2023-03-14T05:28:42;101103.88;;;15.22;49.96
55291;BME280;41155;39.768;2.712;2023-03-14T05:31:08;101156.91;;;15.55;50.25
55291;BME280;41155;39.768;2.712;2023-03-14T05:33:34;101139.47;;;15.36;50.47
55291;BME280;41155;39.768;2.712;2023-03-14T05:35:59;101155.25;;;15.44;50.97
55291;BME280;41155;39.768;2.712;2023-03-14T05:38:25;101152.00;;;15.37;51.15
55291;BME280;41155;39.768;2.712;2023-03-14T05:40:50;101171.34;;;15.46;51.39
55291;BME280;41155;39.768;2.712;2023-03-14T05:43:16;101129.72;;;15.20;51.14
55291;BME280;41155;39.768;2.712;2023-03-14T05:45:42;101157.19;;;15.28;51.75
55291;BME280;41155;39.768;2.712;2023-03-14T05:48:07;101176.50;;;15.32;51.81
55291;BME280;41155;39.768;2.712;2023-03-14T05:50:33;101191.19;;;15.36;51.75
55291;BME280;41155;39.768;2.712;2023-03-14T05:53:19;101136.22;;;14.93;51.62
55291;BME280;41155;39.768;2.712;2023-03-14T05:55:44;101198.28;;;15.22;51.72
55291;BME280;41155;39.768;2.712;2023-03-14T05:58:10;101191.16;;;15.15;52.27
55291;BME280;41155;39.768;2.712;2023-03-14T06:00:35;101191.72;;;15.18;52.23
55291;BME280;41155;39.768;2.712;2023-03-14T06:03:01;101192.81;;;15.17;52.31
55291;BME280;41155;39.768;2.712;2023-03-14T06:05:26;101192.53;;;15.13;52.59
55291;BME280;41155;39.768;2.712;2023-03-14T06:07:52;101188.69;;;15.04;53.19
55291;BME280;41155;39.768;2.712;2023-03-14T06:10:17;101186.25;;;14.97;52.48
55291;BME280;41155;39.768;2.712;2023-03-14T06:12:43;101177.53;;;14.85;53.26
55291;BME280;41155;39.768;2.712;2023-03-14T06:15:09;101182.97;;;14.85;53.48
55291;BME280;41155;39.768;2.712;2023-03-14T06:17:34;101195.69;;;14.74;53.61
55291;BME280;41155;39.768;2.712;2023-03-14T06:20:00;101175.53;;;14.60;53.83
55291;BME280;41155;39.768;2.712;2023-03-14T06:22:25;101207.69;;;14.78;53.94
55291;BME280;41155;39.768;2.712;2023-03-14T06:24:50;101188.34;;;14.75;54.02
55291;BME280;41155;39.768;2.712;2023-03-14T06:27:16;101211.78;;;14.91;53.51
55291;BME280;41155;39.768;2.712;2023-03-14T06:29:41;101218.88;;;14.87;53.84
55291;BME280;41155;39.768;2.712;2023-03-14T06:32:07;101210.97;;;14.90;53.75
55291;BME280;41155;39.768;2.712;2023-03-14T06:34:32;101199.00;;;14.91;53.66
55291;BME280;41155;39.768;2.712;2023-03-14T06:36:58;101218.91;;;15.02;53.90
55291;BME280;41155;39.768;2.712;2023-03-14T06:39:23;101204.19;;;14.88;54.21
55291;BME280;41155;39.768;2.712;2023-03-14T06:41:49;101223.50;;;14.97;54.25
55291;BME280;41155;39.768;2.712;2023-03-14T06:44:14;101227.31;;;14.96;54.16
55291;BME280;41155;39.768;2.712;2023-03-14T06:46:40;101232.75;;;14.96;54.51
55291;BME280;41155;39.768;2.712;2023-03-14T06:49:05;101230.53;;;14.82;54.43
55291;BME280;41155;39.768;2.712;2023-03-14T06:51:30;101230.22;;;14.74;54.92
55291;BME280;41155;39.768;2.712;2023-03-14T06:53:56;101250.09;;;14.79;54.96
55291;BME280;41155;39.768;2.712;2023-03-14T06:56:21;101253.91;;;14.83;54.89
55291;BME280;41155;39.768;2.712;2023-03-14T06:58:47;101249.84;;;14.86;55.02
55291;BME280;41155;39.768;2.712;2023-03-14T07:01:23;101245.50;;;14.90;55.12
55291;BME280;41155;39.768;2.712;2023-03-14T07:03:49;101245.75;;;14.78;55.64
55291;BME280;41155;39.768;2.712;2023-03-14T07:06:14;101249.28;;;14.79;55.74
55291;BME280;41155;39.768;2.712;2023-03-14T07:08:40;101226.13;;;14.71;55.80
55291;BME280;41155;39.768;2.712;2023-03-14T07:11:07;101234.56;;;14.69;55.64
55291;BME280;41155;39.768;2.712;2023-03-14T07:13:32;101239.25;;;14.84;55.42
55291;BME280;41155;39.768;2.712;2023-03-14T07:15:58;101243.34;;;14.87;55.57
55291;BME280;41155;39.768;2.712;2023-03-14T07:18:24;101245.50;;;14.85;55.84
55291;BME280;41155;39.768;2.712;2023-03-14T07:20:49;101229.97;;;14.80;55.97
55291;BME280;41155;39.768;2.712;2023-03-14T07:23:15;101240.31;;;14.83;56.03
55291;BME280;41155;39.768;2.712;2023-03-14T07:25:40;101261.59;;;15.02;55.58
55291;BME280;41155;39.768;2.712;2023-03-14T07:28:06;101274.91;;;15.03;55.94
55291;BME280;41155;39.768;2.712;2023-03-14T07:30:31;101284.19;;;15.12;55.98
55291;BME280;41155;39.768;2.712;2023-03-14T07:32:57;101280.41;;;15.24;55.98
55291;BME280;41155;39.768;2.712;2023-03-14T07:35:22;101273.34;;;15.28;56.02
55291;BME280;41155;39.768;2.712;2023-03-14T07:37:48;101231.13;;;15.05;55.83
55291;BME280;41155;39.768;2.712;2023-03-14T07:40:13;101274.72;;;15.41;56.19
55291;BME280;41155;39.768;2.712;2023-03-14T07:42:42;101281.53;;;15.43;53.97
55291;BME280;41155;39.768;2.712;2023-03-14T07:45:09;101308.78;;;15.64;54.42
55291;BME280;41155;39.768;2.712;2023-03-14T07:47:34;101266.88;;;15.59;52.97
55291;BME280;41155;39.768;2.712;2023-03-14T07:50:00;101287.56;;;15.96;51.96
55291;BME280;41155;39.768;2.712;2023-03-14T07:52:26;101288.69;;;15.95;52.78
55291;BME280;41155;39.768;2.712;2023-03-14T07:54:51;101293.59;;;16.03;52.07
55291;BME280;41155;39.768;2.712;2023-03-14T07:57:17;101285.13;;;16.15;51.31
55291;BME280;41155;39.768;2.712;2023-03-14T07:59:42;101301.19;;;16.27;51.06
55291;BME280;41155;39.768;2.712;2023-03-14T08:02:11;101309.59;;;16.41;49.32
55291;BME280;41155;39.768;2.712;2023-03-14T08:04:39;101298.91;;;16.60;49.12
55291;BME280;41155;39.768;2.712;2023-03-14T08:07:05;101312.47;;;16.90;48.46
55291;BME280;41155;39.768;2.712;2023-03-14T08:09:31;101292.56;;;17.45;47.17
55291;BME280;41155;39.768;2.712;2023-03-14T08:11:56;101287.75;;;18.34;43.72
55291;BME280;41155;39.768;2.712;2023-03-14T08:14:21;101289.81;;;19.33;41.11
55291;BME280;41155;39.768;2.712;2023-03-14T08:16:49;101330.25;;;20.59;39.73
55291;BME280;41155;39.768;2.712;2023-03-14T08:19:15;101331.72;;;21.93;36.86
55291;BME280;41155;39.768;2.712;2023-03-14T08:21:40;101324.88;;;22.97;33.86
55291;BME280;41155;39.768;2.712;2023-03-14T08:24:06;101336.09;;;24.05;32.13
55291;BME280;41155;39.768;2.712;2023-03-14T08:26:31;101324.53;;;24.76;29.86
55291;BME280;41155;39.768;2.712;2023-03-14T08:28:57;101345.69;;;25.53;28.78
55291;BME280;41155;39.768;2.712;2023-03-14T08:31:23;101346.97;;;26.55;27.04
55291;BME280;41155;39.768;2.712;2023-03-14T08:33:48;101345.13;;;27.33;25.25
55291;BME280;41155;39.768;2.712;2023-03-14T08:36:14;101338.31;;;27.70;23.14
55291;BME280;41155;39.768;2.712;2023-03-14T08:38:39;101364.09;;;27.83;23.64
55291;BME280;41155;39.768;2.712;2023-03-14T08:41:08;101350.13;;;28.24;23.75
55291;BME280;41155;39.768;2.712;2023-03-14T08:43:34;101351.03;;;28.75;23.19
55291;BME280;41155;39.768;2.712;2023-03-14T08:46:01;101354.41;;;29.71;20.87
55291;BME280;41155;39.768;2.712;2023-03-14T08:48:30;101364.88;;;29.97;19.65
55291;BME280;41155;39.768;2.712;2023-03-14T08:51:09;101368.19;;;29.64;20.41
55291;BME280;41155;39.768;2.712;2023-03-14T08:53:36;101371.94;;;28.85;20.90
55291;BME280;41155;39.768;2.712;2023-03-14T08:56:02;101389.16;;;28.59;21.36
55291;BME280;41155;39.768;2.712;2023-03-14T08:58:29;101408.66;;;26.76;22.62
55291;BME280;41155;39.768;2.712;2023-03-14T09:00:57;101396.28;;;25.95;23.80
55291;BME280;41155;39.768;2.712;2023-03-14T09:03:23;101415.06;;;25.89;24.69
55291;BME280;41155;39.768;2.712;2023-03-14T09:05:50;101426.59;;;25.41;25.21
55291;BME280;41155;39.768;2.712;2023-03-14T09:08:16;101433.97;;;25.28;25.08
55291;BME280;41155;39.768;2.712;2023-03-14T09:10:41;101436.16;;;24.67;26.21
55291;BME280;41155;39.768;2.712;2023-03-14T09:13:07;101415.84;;;24.71;26.01
55291;BME280;41155;39.768;2.712;2023-03-14T09:15:32;101409.38;;;24.50;25.89
55291;BME280;41155;39.768;2.712;2023-03-14T09:17:58;101372.44;;;23.64;26.37
55291;BME280;41155;39.768;2.712;2023-03-14T09:20:23;101411.88;;;24.08;26.07
55291;BME280;41155;39.768;2.712;2023-03-14T09:22:49;101421.47;;;23.84;26.07
55291;BME280;41155;39.768;2.712;2023-03-14T09:25:15;101424.78;;;23.46;26.59
55291;BME280;41155;39.768;2.712;2023-03-14T09:27:40;101434.22;;;23.63;26.78
55291;BME280;41155;39.768;2.712;2023-03-14T09:30:06;101445.47;;;23.75;26.61
55291;BME280;41155;39.768;2.712;2023-03-14T09:32:32;101429.44;;;23.29;26.01
55291;BME280;41155;39.768;2.712;2023-03-14T09:34:58;101460.47;;;23.60;25.90
55291;BME280;41155;39.768;2.712;2023-03-14T09:37:23;101458.56;;;23.61;25.94
55291;BME280;41155;39.768;2.712;2023-03-14T09:39:49;101444.34;;;23.94;25.16
55291;BME280;41155;39.768;2.712;2023-03-14T09:42:17;101461.38;;;24.30;24.81
55291;BME280;41155;39.768;2.712;2023-03-14T09:47:22;101462.63;;;26.04;23.89
55291;BME280;41155;39.768;2.712;2023-03-14T09:49:48;101452.72;;;26.69;22.46
55291;BME280;41155;39.768;2.712;2023-03-14T09:52:17;101446.81;;;27.93;21.21
55291;BME280;41155;39.768;2.712;2023-03-14T09:54:50;101452.69;;;28.04;20.71
55291;BME280;41155;39.768;2.712;2023-03-14T09:57:19;101460.31;;;28.95;19.91
55291;BME280;41155;39.768;2.712;2023-03-14T09:59:46;101469.00;;;28.62;20.20
55291;BME280;41155;39.768;2.712;2023-03-14T10:02:24;101469.19;;;29.33;19.29
55291;BME280;41155;39.768;2.712;2023-03-14T10:04:51;101467.38;;;30.11;18.31
55291;BME280;41155;39.768;2.712;2023-03-14T10:07:22;101479.22;;;29.69;18.23
55291;BME280;41155;39.768;2.712;2023-03-14T10:09:50;101494.16;;;30.77;17.79
55291;BME280;41155;39.768;2.712;2023-03-14T10:12:16;101483.97;;;33.37;15.36
55291;BME280;41155;39.768;2.712;2023-03-14T10:14:50;101463.00;;;33.72;15.15
55291;BME280;41155;39.768;2.712;2023-03-14T10:17:19;101486.53;;;33.57;15.63
55291;BME280;41155;39.768;2.712;2023-03-14T10:19:59;101496.78;;;34.04;15.16
55291;BME280;41155;39.768;2.712;2023-03-14T10:22:32;101484.22;;;35.07;14.73
55291;BME280;41155;39.768;2.712;2023-03-14T10:25:03;101494.59;;;35.64;14.11
55291;BME280;41155;39.768;2.712;2023-03-14T10:27:34;101495.81;;;34.80;14.65
55291;BME280;41155;39.768;2.712;2023-03-14T10:30:06;101484.81;;;34.14;15.00
55291;BME280;41155;39.768;2.712;2023-03-14T10:32:33;101480.97;;;34.76;14.61
55291;BME280;41155;39.768;2.712;2023-03-14T10:37:56;101468.00;;;35.90;13.95
55291;BME280;41155;39.768;2.712;2023-03-14T10:40:27;101455.13;;;36.73;13.90
55291;BME280;41155;39.768;2.712;2023-03-14T10:42:54;101436.03;;;36.43;13.24
55291;BME280;41155;39.768;2.712;2023-03-14T10:45:36;101443.97;;;38.44;12.57
55291;BME280;41155;39.768;2.712;2023-03-14T10:48:30;101435.16;;;38.42;12.28
55291;BME280;41155;39.768;2.712;2023-03-14T10:53:25;101434.75;;;38.13;12.32
55291;BME280;41155;39.768;2.712;2023-03-14T10:55:52;101449.75;;;38.84;12.48
55291;BME280;41155;39.768;2.712;2023-03-14T11:01:00;101456.03;;;40.55;11.33
55291;BME280;41155;39.768;2.712;2023-03-14T11:03:31;101455.00;;;40.65;10.66
55291;BME280;41155;39.768;2.712;2023-03-14T11:08:49;101431.31;;;41.21;10.76
55291;BME280;41155;39.768;2.712;2023-03-14T11:11:24;101432.31;;;40.98;11.13
55291;BME280;41155;39.768;2.712;2023-03-14T11:14:15;101461.44;;;40.13;11.47
55291;BME280;41155;39.768;2.712;2023-03-14T11:22:33;101458.78;;;40.42;10.04
55291;BME280;41155;39.768;2.712;2023-03-14T11:25:23;101465.34;;;41.50;9.92
55291;BME280;41155;39.768;2.712;2023-03-14T11:32:50;101453.63;;;41.19;9.40
55291;BME280;41155;39.768;2.712;2023-03-14T11:38:13;101429.94;;;40.31;9.99
55291;BME280;41155;39.768;2.712;2023-03-14T11:40:40;101410.28;;;41.35;8.93
55291;BME280;41155;39.768;2.712;2023-03-14T11:43:17;101427.88;;;42.87;8.76
55291;BME280;41155;39.768;2.712;2023-03-14T11:45:47;101425.41;;;42.63;8.97
55291;BME280;41155;39.768;2.712;2023-03-14T11:48:28;101397.09;;;43.95;8.46
55291;BME280;41155;39.768;2.712;2023-03-14T11:50:57;101402.63;;;41.19;9.36
55291;BME280;41155;39.768;2.712;2023-03-14T11:56:13;101408.75;;;40.03;10.55
55291;BME280;41155;39.768;2.712;2023-03-14T11:58:51;101407.56;;;40.20;10.40
55291;BME280;41155;39.768;2.712;2023-03-14T12:01:20;101403.09;;;43.44;8.70
55291;BME280;41155;39.768;2.712;2023-03-14T12:06:36;101388.03;;;41.04;9.45
55291;BME280;41155;39.768;2.712;2023-03-14T12:09:06;101374.00;;;40.03;10.43
55291;BME280;41155;39.768;2.712;2023-03-14T12:11:56;101363.75;;;39.92;10.64
55291;BME280;41155;39.768;2.712;2023-03-14T12:14:29;101363.81;;;41.32;9.80
55291;BME280;41155;39.768;2.712;2023-03-14T12:17:06;101352.94;;;42.72;8.92
55291;BME280;41155;39.768;2.712;2023-03-14T12:19:35;101357.16;;;42.07;9.20
55291;BME280;41155;39.768;2.712;2023-03-14T12:22:08;101352.25;;;42.33;9.24
55291;BME280;41155;39.768;2.712;2023-03-14T12:24:45;101347.44;;;40.65;10.40
55291;BME280;41155;39.768;2.712;2023-03-14T12:28:16;101330.56;;;42.39;9.26
55291;BME280;41155;39.768;2.712;2023-03-14T12:30:38;101365.53;;;39.06;11.41
55291;BME280;41155;39.768;2.712;2023-03-14T12:41:00;101347.47;;;41.24;9.80
55291;BME280;41155;39.768;2.712;2023-03-14T12:43:33;101351.03;;;39.84;11.01
55291;BME280;41155;39.768;2.712;2023-03-14T12:48:44;101327.59;;;44.15;9.25
55291;BME280;41155;39.768;2.712;2023-03-14T12:59:37;101319.47;;;39.86;11.11
55291;BME280;41155;39.768;2.712;2023-03-14T13:04:35;101321.56;;;42.88;9.49
55291;BME280;41155;39.768;2.712;2023-03-14T13:07:03;101312.66;;;42.04;8.86
55291;BME280;41155;39.768;2.712;2023-03-14T13:12:09;101284.34;;;42.38;9.44
55291;BME280;41155;39.768;2.712;2023-03-14T13:14:41;101292.31;;;39.16;11.30
55291;BME280;41155;39.768;2.712;2023-03-14T13:17:15;101284.78;;;40.34;10.81
55291;BME280;41155;39.768;2.712;2023-03-14T13:19:42;101282.41;;;40.78;10.83
55291;BME280;41155;39.768;2.712;2023-03-14T13:22:26;101271.78;;;40.20;10.57
55291;BME280;41155;39.768;2.712;2023-03-14T13:25:00;101280.91;;;40.28;11.02
55291;BME280;41155;39.768;2.712;2023-03-14T13:27:26;101292.72;;;40.39;10.66
55291;BME280;41155;39.768;2.712;2023-03-14T13:29:52;101277.56;;;38.64;11.71
55291;BME280;41155;39.768;2.712;2023-03-14T13:32:22;101268.94;;;38.95;11.17
55291;BME280;41155;39.768;2.712;2023-03-14T13:34:50;101254.28;;;40.09;10.15
55291;BME280;41155;39.768;2.712;2023-03-14T13:37:21;101269.50;;;38.19;11.73
55291;BME280;41155;39.768;2.712;2023-03-14T13:39:51;101254.88;;;38.72;11.08
55291;BME280;41155;39.768;2.712;2023-03-14T13:42:18;101281.00;;;38.76;11.54
55291;BME280;41155;39.768;2.712;2023-03-14T13:44:44;101274.50;;;39.19;11.22
55291;BME280;41155;39.768;2.712;2023-03-14T13:47:19;101275.34;;;37.20;11.84
55291;BME280;41155;39.768;2.712;2023-03-14T13:49:46;101261.78;;;38.00;11.83
55291;BME280;41155;39.768;2.712;2023-03-14T13:52:36;101269.78;;;37.47;11.76
55291;BME280;41155;39.768;2.712;2023-03-14T13:55:05;101276.78;;;36.15;12.17
55291;BME280;41155;39.768;2.712;2023-03-14T13:57:49;101271.97;;;36.98;11.62